createdAt,value
2022-10-03T00:02:20.187Z,17.96
2022-10-03T00:05:11.099Z,17.95
2022-10-03T00:08:00.115Z,17.92
2022-10-03T00:10:46.142Z,17.87
2022-10-03T00:13:26.872Z,17.81
2022-10-03T00:16:14.155Z,17.74
2022-10-03T00:18:58.379Z,17.71
2022-10-03T00:21:48.225Z,17.66
2022-10-03T00:24:32.485Z,17.63
2022-10-03T00:27:10.340Z,17.59
2022-10-03T00:29:59.592Z,17.53
2022-10-03T00:32:49.640Z,17.47
2022-10-03T00:35:41.540Z,17.43
2022-10-03T00:38:37.996Z,17.37
2022-10-03T00:41:43.357Z,17.35
2022-10-03T00:45:08.742Z,17.28
2022-10-03T00:48:15.760Z,17.27
2022-10-03T00:51:19.309Z,17.25
2022-10-03T00:54:08.697Z,17.28
2022-10-03T00:57:06.469Z,17.27
2022-10-03T01:00:02.584Z,17.27
2022-10-03T01:02:59.929Z,17.28
2022-10-03T01:05:46.816Z,17.29
2022-10-03T01:08:48.649Z,17.26
2022-10-03T01:11:36.959Z,17.28
2022-10-03T01:14:23.619Z,17.29
2022-10-03T01:17:10.883Z,17.34
2022-10-03T01:20:14.408Z,17.36
2022-10-03T01:23:22.648Z,17.36
2022-10-03T01:26:05.661Z,17.42
2022-10-03T01:29:14.837Z,17.44
2022-10-03T01:31:52.861Z,17.48
2022-10-03T01:34:29.150Z,17.54
2022-10-03T01:37:09.225Z,17.59
2022-10-03T01:39:50.831Z,17.64
2022-10-03T01:42:38.257Z,17.66
2022-10-03T01:45:26.118Z,17.68
2022-10-03T01:48:02.136Z,17.69
2022-10-03T01:50:37.655Z,17.72
2022-10-03T01:53:15.078Z,17.71
2022-10-03T01:55:59.788Z,17.70
2022-10-03T01:58:40.919Z,17.74
2022-10-03T02:01:20.469Z,17.78
2022-10-03T02:03:55.357Z,17.82
2022-10-03T02:06:34.823Z,17.86
2022-10-03T02:09:11.286Z,17.91
2022-10-03T02:11:59.914Z,17.92
2022-10-03T02:14:40.263Z,17.94
2022-10-03T02:17:21.267Z,17.93
2022-10-03T02:20:01.726Z,17.90
2022-10-03T02:22:36.154Z,17.87
2022-10-03T02:25:23.694Z,17.81
2022-10-03T02:29:00.321Z,17.71
2022-10-03T02:32:24.010Z,17.67
2022-10-03T02:35:32.848Z,17.62
2022-10-03T02:38:42.056Z,17.58
2022-10-03T02:41:39.370Z,17.58
2022-10-03T02:44:55.847Z,17.55
2022-10-03T02:48:20.160Z,17.52
2022-10-03T02:51:48.996Z,17.44
2022-10-03T02:55:30.515Z,17.42
2022-10-03T02:59:03.651Z,17.40
2022-10-03T03:02:25.405Z,17.41
2022-10-03T03:05:24.917Z,17.44
2022-10-03T03:08:43.457Z,17.47
2022-10-03T03:11:59.363Z,17.43
2022-10-03T03:15:11.864Z,17.37
2022-10-03T03:17:57.022Z,17.37
2022-10-03T03:20:54.384Z,17.33
2022-10-03T03:23:57.838Z,17.26
2022-10-03T03:27:06.759Z,17.17
2022-10-03T03:29:45.383Z,17.15
2022-10-03T03:32:29.576Z,17.09
2022-10-03T03:35:13.673Z,17.03
2022-10-03T03:37:56.464Z,16.97
2022-10-03T03:40:39.803Z,16.91
2022-10-03T03:43:48.096Z,16.81
2022-10-03T03:46:34.457Z,16.79
2022-10-03T03:49:29.943Z,16.74
2022-10-03T03:52:22.074Z,16.72
2022-10-03T03:55:28.151Z,16.65
2022-10-03T03:58:13.710Z,16.67
2022-10-03T04:01:26.597Z,16.62
2022-10-03T04:04:12.996Z,16.61
2022-10-03T04:06:57.698Z,16.61
2022-10-03T04:09:59.755Z,16.61
2022-10-03T04:12:54.078Z,16.64
2022-10-03T04:15:46.209Z,16.69
2022-10-03T04:18:59.906Z,16.73
2022-10-03T04:22:04.769Z,16.80
2022-10-03T04:25:01.419Z,16.88
2022-10-03T04:28:10.870Z,16.90
2022-10-03T04:31:01.971Z,16.95
2022-10-03T04:33:50.338Z,16.98
2022-10-03T04:36:58.445Z,16.96
2022-10-03T04:39:37.599Z,16.98
2022-10-03T04:42:21.189Z,16.98
2022-10-03T04:45:30.978Z,16.91
2022-10-03T04:48:16.614Z,16.89
2022-10-03T04:51:01.516Z,16.88
2022-10-03T04:53:49.956Z,16.87
2022-10-03T04:56:52.494Z,16.86
2022-10-03T04:59:38.298Z,16.89
2022-10-03T05:02:22.505Z,16.91
2022-10-03T05:05:19.707Z,16.87
2022-10-03T05:07:58.644Z,16.86
2022-10-03T05:10:56.737Z,16.79
2022-10-03T05:13:45.380Z,16.74
2022-10-03T05:16:29.218Z,16.72
2022-10-03T05:19:33.414Z,16.67
2022-10-03T05:22:12.063Z,16.69
2022-10-03T05:24:50.177Z,16.65
2022-10-03T05:27:31.074Z,16.65
2022-10-03T05:30:07.482Z,16.65
2022-10-03T05:32:45.438Z,16.62
2022-10-03T05:35:45.625Z,16.59
2022-10-03T05:39:01.463Z,16.57
2022-10-03T05:41:32.744Z,16.59
2022-10-03T05:44:06.872Z,16.59
2022-10-03T05:46:57.591Z,16.60
2022-10-03T05:49:57.375Z,16.58
2022-10-03T05:52:55.220Z,16.60
2022-10-03T05:55:43.598Z,16.61
2022-10-03T05:58:42.424Z,16.58
2022-10-03T06:01:57.761Z,16.52
2022-10-03T06:05:14.079Z,16.51
2022-10-03T06:08:20.965Z,16.52
2022-10-03T06:11:08.236Z,16.53
2022-10-03T06:14:01.293Z,16.58
2022-10-03T06:16:44.362Z,16.60
2022-10-03T06:19:39.441Z,16.62
2022-10-03T06:23:06.430Z,16.63
2022-10-03T06:26:36.247Z,16.63
2022-10-03T06:29:57.822Z,16.66
2022-10-03T06:33:41.356Z,16.67
2022-10-03T06:36:59.765Z,16.71
2022-10-03T06:40:32.709Z,16.76
2022-10-03T06:43:41.840Z,16.93
2022-10-03T06:47:05.803Z,17.08
2022-10-03T06:50:12.269Z,17.24
2022-10-03T06:53:21.701Z,17.37
2022-10-03T06:56:22.860Z,17.43
2022-10-03T06:59:30.822Z,17.51
2022-10-03T07:03:00.766Z,17.55
2022-10-03T07:06:17.418Z,17.59
2022-10-03T07:09:40.783Z,17.62
2022-10-03T07:12:52.468Z,17.69
2022-10-03T07:16:26.063Z,17.81
2022-10-03T07:19:44.888Z,17.94
2022-10-03T07:22:50.096Z,18.08
2022-10-03T07:26:03.565Z,18.21
2022-10-03T07:29:15.012Z,18.31
2022-10-03T07:32:12.168Z,18.45
2022-10-03T07:35:51.881Z,18.64
2022-10-03T07:39:02.277Z,18.87
2022-10-03T07:42:34.266Z,19.09
2022-10-03T07:45:39.416Z,19.36
2022-10-03T07:48:59.704Z,19.56
2022-10-03T07:51:41.377Z,19.74
2022-10-03T07:54:54.923Z,19.92
2022-10-03T07:58:01.508Z,20.14
2022-10-03T08:00:47.515Z,20.31
2022-10-03T08:03:57.114Z,20.36
2022-10-03T08:06:38.731Z,20.46
2022-10-03T08:09:51.487Z,20.52
2022-10-03T08:12:58.890Z,20.53
2022-10-03T08:15:44.735Z,20.57
2022-10-03T08:19:10.353Z,20.51
2022-10-03T08:22:01.054Z,20.55
2022-10-03T08:25:07.344Z,20.59
2022-10-03T08:28:10.414Z,20.70
2022-10-03T08:31:12.579Z,21.02
2022-10-03T08:34:04.948Z,21.70
2022-10-03T08:37:33.826Z,22.48
2022-10-03T08:41:00.319Z,22.85
2022-10-03T08:44:24.224Z,22.99
2022-10-03T08:47:41.365Z,22.92
2022-10-03T08:50:50.136Z,22.80
2022-10-03T08:54:05.196Z,22.73
2022-10-03T08:57:06.211Z,22.99
2022-10-03T09:00:05.608Z,23.49
2022-10-03T09:03:40.672Z,23.98
2022-10-03T09:07:16.605Z,24.91
2022-10-03T09:10:37.143Z,26.50
2022-10-03T09:14:03.207Z,27.94
2022-10-03T09:17:19.894Z,29.32
2022-10-03T09:20:48.887Z,30.66
2022-10-03T09:24:18.628Z,31.93
2022-10-03T09:27:36.118Z,32.81
2022-10-03T09:30:31.139Z,33.29
2022-10-03T09:33:51.771Z,33.91
2022-10-03T09:37:01.704Z,34.36
2022-10-03T09:40:19.072Z,34.86
2022-10-03T09:43:35.599Z,35.27
2022-10-03T09:47:11.424Z,35.73
2022-10-03T09:50:21.373Z,35.28
2022-10-03T09:53:30.085Z,34.14
2022-10-03T09:56:37.747Z,33.80
2022-10-03T09:59:30.342Z,34.12
2022-10-03T10:02:19.909Z,34.32
2022-10-03T10:05:18.493Z,34.67
2022-10-03T10:08:10.122Z,34.26
2022-10-03T10:10:57.969Z,33.19
2022-10-03T10:14:17.328Z,32.00
2022-10-03T10:17:30.233Z,31.94
2022-10-03T10:20:20.200Z,31.76
2022-10-03T10:23:19.533Z,31.10
2022-10-03T10:26:57.145Z,30.38
2022-10-03T10:30:13.907Z,29.78
2022-10-03T10:33:52.173Z,29.17
2022-10-03T10:37:24.551Z,28.39
2022-10-03T10:40:37.649Z,27.81
2022-10-03T10:43:52.610Z,27.30
2022-10-03T10:47:06.035Z,26.95
2022-10-03T10:50:20.673Z,26.50
2022-10-03T10:53:45.969Z,26.25
2022-10-03T10:57:07.917Z,26.18
2022-10-03T11:00:29.214Z,26.19
2022-10-03T11:04:03.794Z,26.02
2022-10-03T11:07:25.887Z,26.14
2022-10-03T11:10:32.886Z,25.97
2022-10-03T11:14:01.439Z,25.71
2022-10-03T11:17:21.949Z,25.43
2022-10-03T11:20:47.475Z,25.12
2022-10-03T11:24:21.430Z,24.89
2022-10-03T11:27:37.381Z,25.05
2022-10-03T11:30:24.029Z,25.60
2022-10-03T11:33:54.862Z,25.75
2022-10-03T11:37:09.201Z,25.78
2022-10-03T11:39:54.175Z,25.89
2022-10-03T11:42:50.874Z,25.99
2022-10-03T11:45:33.177Z,25.97
2022-10-03T11:48:37.389Z,25.81
2022-10-03T11:51:12.190Z,25.70
2022-10-03T11:54:00.077Z,25.52
2022-10-03T11:56:44.484Z,25.37
2022-10-03T11:59:35.027Z,25.19
2022-10-03T12:02:31.843Z,25.16
2022-10-03T12:05:06.054Z,25.26
2022-10-03T12:08:25.480Z,25.14
2022-10-03T12:11:11.389Z,25.05
2022-10-03T12:13:49.825Z,24.98
2022-10-03T12:16:27.758Z,24.96
2022-10-03T12:19:08.302Z,24.92
2022-10-03T12:21:50.596Z,24.98
2022-10-03T12:24:31.346Z,24.96
2022-10-03T12:27:17.527Z,24.87
2022-10-03T12:29:58.745Z,24.77
2022-10-03T12:32:42.131Z,24.65
2022-10-03T12:35:36.018Z,24.47
2022-10-03T12:38:27.335Z,24.31
2022-10-03T12:41:13.709Z,24.19
2022-10-03T12:44:09.681Z,24.09
2022-10-03T12:46:50.178Z,24.04
2022-10-03T12:49:32.571Z,23.99
2022-10-03T12:52:06.378Z,23.91
2022-10-03T12:55:07.232Z,23.77
2022-10-03T12:57:55.665Z,23.67
2022-10-03T13:00:30.279Z,23.66
2022-10-03T13:03:38.646Z,23.55
2022-10-03T13:07:03.310Z,23.51
2022-10-03T13:10:11.419Z,23.48
2022-10-03T13:12:49.689Z,23.53
2022-10-03T13:16:04.559Z,23.45
2022-10-03T13:18:51.137Z,23.47
2022-10-03T13:24:33.467Z,23.58
2022-10-03T13:27:29.076Z,23.75
2022-10-03T13:30:07.270Z,24.03
2022-10-03T13:32:42.333Z,24.49
2022-10-03T13:35:42.792Z,24.85
2022-10-03T13:39:00.999Z,24.98
2022-10-03T13:41:40.182Z,25.07
2022-10-03T13:44:17.713Z,25.02
2022-10-03T13:46:54.413Z,24.94
2022-10-03T13:49:33.819Z,24.82
2022-10-03T13:52:18.002Z,24.68
2022-10-03T13:55:26.348Z,24.47
2022-10-03T13:58:39.624Z,24.39
2022-10-03T14:01:39.186Z,24.37
2022-10-03T14:04:55.468Z,24.26
2022-10-03T14:07:41.635Z,24.28
2022-10-03T14:10:29.968Z,24.26
2022-10-03T14:13:26.009Z,24.21
2022-10-03T14:16:04.066Z,24.25
2022-10-03T14:18:47.738Z,24.25
2022-10-03T14:21:48.023Z,24.26
2022-10-03T14:24:37.513Z,24.30
2022-10-03T14:27:41.020Z,24.22
2022-10-03T14:30:13.754Z,24.26
2022-10-03T14:33:03.952Z,24.22
2022-10-03T14:35:53.621Z,24.13
2022-10-03T14:39:03.307Z,24.05
2022-10-03T14:41:49.419Z,24.00
2022-10-03T14:44:22.689Z,23.96
2022-10-03T14:46:58.854Z,23.90
2022-10-03T14:52:33.747Z,23.76
2022-10-03T14:55:13.552Z,23.70
2022-10-03T14:58:09.143Z,23.67
2022-10-03T15:00:45.245Z,23.62
2022-10-03T15:03:30.986Z,23.55
2022-10-03T15:06:03.458Z,23.53
2022-10-03T15:08:39.340Z,23.46
2022-10-03T15:11:12.868Z,23.43
2022-10-03T15:13:46.337Z,23.40
2022-10-03T15:16:19.319Z,23.37
2022-10-03T15:18:56.853Z,23.33
2022-10-03T15:21:27.427Z,23.31
2022-10-03T15:24:01.265Z,23.28
2022-10-03T15:26:36.905Z,23.24
2022-10-03T15:29:07.802Z,23.21
2022-10-03T15:31:39.174Z,23.19
2022-10-03T15:34:18.979Z,23.12
2022-10-03T15:36:51.204Z,23.08
2022-10-03T15:39:25.406Z,23.02
2022-10-03T15:42:04.574Z,22.96
2022-10-03T15:44:39.433Z,22.92
2022-10-03T15:47:14.074Z,22.86
2022-10-03T15:49:50.253Z,22.82
2022-10-03T15:52:25.770Z,22.78
2022-10-03T15:55:11.020Z,22.75
2022-10-03T15:57:46.458Z,22.70
2022-10-03T16:00:24.571Z,22.66
2022-10-03T16:03:02.781Z,22.61
2022-10-03T16:05:31.125Z,22.61
2022-10-03T16:08:06.735Z,22.58
2022-10-03T16:10:40.890Z,22.58
2022-10-03T16:13:33.334Z,22.54
2022-10-03T16:16:34.948Z,22.46
2022-10-03T16:19:29.577Z,22.43
2022-10-03T16:22:12.576Z,22.41
2022-10-03T16:24:58.487Z,22.41
2022-10-03T16:27:30.051Z,22.41
2022-10-03T16:30:18.624Z,22.39
2022-10-03T16:32:59.705Z,22.38
2022-10-03T16:35:43.394Z,22.33
2022-10-03T16:38:22.470Z,22.27
2022-10-03T16:40:56.683Z,22.23
2022-10-03T16:43:26.331Z,22.20
2022-10-03T16:45:56.972Z,22.16
2022-10-03T16:48:47.440Z,22.13
2022-10-03T16:51:20.471Z,22.07
2022-10-03T16:53:52.468Z,22.06
2022-10-03T16:56:25.394Z,22.04
2022-10-03T16:58:58.644Z,22.02
2022-10-03T17:01:36.311Z,22.00
2022-10-03T17:04:20.951Z,21.97
2022-10-03T17:06:52.267Z,21.98
2022-10-03T17:09:31.334Z,21.97
2022-10-03T17:12:01.991Z,21.95
2022-10-03T17:14:37.448Z,21.95
2022-10-03T17:17:23.371Z,21.92
2022-10-03T17:19:58.546Z,21.91
2022-10-03T17:22:36.541Z,21.88
2022-10-03T17:25:28.285Z,21.83
2022-10-03T17:27:58.176Z,21.76
2022-10-03T17:30:33.845Z,21.71
2022-10-03T17:33:13.256Z,21.65
2022-10-03T17:35:54.938Z,21.57
2022-10-03T17:38:49.418Z,21.48
2022-10-03T17:41:24.437Z,21.40
2022-10-03T17:44:14.219Z,21.32
2022-10-03T17:46:51.076Z,21.27
2022-10-03T17:49:35.485Z,21.19
2022-10-03T17:52:05.163Z,21.15
2022-10-03T17:54:39.078Z,21.11
2022-10-03T17:57:16.953Z,21.03
2022-10-03T17:59:55.083Z,20.99
2022-10-03T18:02:35.105Z,20.91
2022-10-03T18:05:15.485Z,20.91
2022-10-03T18:07:44.831Z,20.91
2022-10-03T18:10:24.737Z,20.89
2022-10-03T18:12:56.640Z,20.90
2022-10-03T18:16:09.556Z,20.83
2022-10-03T18:19:25.531Z,20.78
2022-10-03T18:22:16.168Z,20.79
2022-10-03T18:24:58.435Z,20.78
2022-10-03T18:28:12.538Z,20.74
2022-10-03T18:30:50.731Z,20.78
2022-10-03T18:33:24.838Z,20.77
2022-10-03T18:35:53.733Z,20.78
2022-10-03T18:38:27.023Z,20.75
2022-10-03T18:40:58.107Z,20.75
2022-10-03T18:43:37.023Z,20.73
2022-10-03T18:46:16.309Z,20.70
2022-10-03T18:49:24.065Z,20.65
2022-10-03T18:51:50.604Z,20.58
2022-10-03T18:54:38.859Z,20.48
2022-10-03T18:57:19.862Z,20.40
2022-10-03T18:59:56.339Z,20.36
2022-10-03T19:02:32.476Z,20.32
2022-10-03T19:05:12.054Z,20.27
2022-10-03T19:07:50.540Z,20.23
2022-10-03T19:10:37.183Z,20.19
2022-10-03T19:13:19.957Z,20.16
2022-10-03T19:16:13.643Z,20.12
2022-10-03T19:18:44.873Z,20.16
2022-10-03T19:21:19.311Z,20.14
2022-10-03T19:23:57.776Z,20.15
2022-10-03T19:26:35.509Z,20.14
2022-10-03T19:29:08.406Z,20.13
2022-10-03T19:31:42.755Z,20.14
2022-10-03T19:34:21.983Z,20.10
2022-10-03T19:36:53.464Z,20.09
2022-10-03T19:39:22.700Z,20.04
2022-10-03T19:41:57.062Z,19.97
2022-10-03T19:44:27.273Z,19.93
2022-10-03T19:47:14.183Z,19.84
2022-10-03T19:49:56.380Z,19.77
2022-10-03T19:52:29.447Z,19.77
2022-10-03T19:55:04.594Z,19.73
2022-10-03T19:57:43.936Z,19.70
2022-10-03T20:00:31.647Z,19.64
2022-10-03T20:03:16.964Z,19.60
2022-10-03T20:05:57.563Z,19.58
2022-10-03T20:08:35.102Z,19.56
2022-10-03T20:11:17.375Z,19.53
2022-10-03T20:13:49.403Z,19.53
2022-10-03T20:16:22.486Z,19.52
2022-10-03T20:18:53.370Z,19.51
2022-10-03T20:21:27.074Z,19.49
2022-10-03T20:23:56.767Z,19.51
2022-10-03T20:26:34.312Z,19.51
2022-10-03T20:29:28.451Z,19.49
2022-10-03T20:32:01.332Z,19.53
2022-10-03T20:34:30.779Z,19.53
2022-10-03T20:37:22.542Z,19.40
2022-10-03T20:39:52.023Z,19.33
2022-10-03T20:42:26.240Z,19.23
2022-10-03T20:45:02.279Z,19.14
2022-10-03T20:47:51.080Z,19.07
2022-10-03T20:50:26.883Z,19.09
2022-10-03T20:52:59.210Z,19.12
2022-10-03T20:55:32.896Z,19.14
2022-10-03T20:58:15.846Z,19.12
2022-10-03T21:00:51.321Z,19.14
2022-10-03T21:03:35.047Z,19.14
2022-10-03T21:06:14.821Z,19.17
2022-10-03T21:08:43.374Z,19.19
2022-10-03T21:11:22.059Z,19.20
2022-10-03T21:13:55.663Z,19.19
2022-10-03T21:16:29.043Z,19.18
2022-10-03T21:19:02.411Z,19.17
2022-10-03T21:21:40.949Z,19.14
2022-10-03T21:24:18.954Z,19.12
2022-10-03T21:26:54.397Z,19.11
2022-10-03T21:29:31.017Z,19.07
2022-10-03T21:32:22.079Z,19.05
2022-10-03T21:35:07.835Z,19.06
2022-10-03T21:37:45.138Z,19.07
2022-10-03T21:40:33.136Z,19.07
2022-10-03T21:43:15.424Z,19.09
2022-10-03T21:45:55.964Z,19.10
2022-10-03T21:48:39.077Z,19.10
2022-10-03T21:51:26.059Z,19.10
2022-10-03T21:54:14.277Z,19.06
2022-10-03T21:57:03.829Z,18.92
2022-10-03T22:00:12.255Z,18.77
2022-10-03T22:02:56.821Z,18.76
2022-10-03T22:05:44.793Z,18.71
2022-10-03T22:08:20.378Z,18.63
2022-10-03T22:11:05.141Z,18.53
2022-10-03T22:13:37.575Z,18.52
2022-10-03T22:16:14.803Z,18.48
2022-10-03T22:19:10.816Z,18.46
2022-10-03T22:21:54.407Z,18.52
2022-10-03T22:24:32.867Z,18.56
2022-10-03T22:27:10.601Z,18.59
2022-10-03T22:29:55.294Z,18.60
2022-10-03T22:32:34.180Z,18.62
2022-10-03T22:35:25.380Z,18.59
2022-10-03T22:37:56.761Z,18.60
2022-10-03T22:40:26.097Z,18.57
2022-10-03T22:42:57.543Z,18.48
2022-10-03T22:45:29.927Z,18.46
2022-10-03T22:48:04.303Z,18.47
2022-10-03T22:50:40.083Z,18.46
2022-10-03T22:53:14.458Z,18.41
2022-10-03T22:55:48.884Z,18.40
2022-10-03T22:58:17.904Z,18.39
2022-10-03T23:00:50.620Z,18.40
2022-10-03T23:03:24.738Z,18.41
2022-10-03T23:06:36.168Z,18.35
2022-10-03T23:09:19.710Z,18.38
2022-10-03T23:11:51.616Z,18.42
2022-10-03T23:14:26.535Z,18.44
2022-10-03T23:17:06.921Z,18.46
2022-10-03T23:19:53.934Z,18.46
2022-10-03T23:22:29.428Z,18.44
2022-10-03T23:25:05.904Z,18.42
2022-10-03T23:28:00.572Z,18.33
2022-10-03T23:30:48.525Z,18.27
2022-10-03T23:33:38.678Z,18.34
2022-10-03T23:36:16.603Z,18.39
2022-10-03T23:39:01.286Z,18.42
2022-10-03T23:42:02.971Z,18.44
2022-10-03T23:44:39.589Z,18.50
2022-10-03T23:47:14.362Z,18.52
2022-10-03T23:49:46.038Z,18.46
2022-10-03T23:52:23.174Z,18.42
2022-10-03T23:54:55.265Z,18.43
2022-10-03T23:57:31.858Z,18.42
